sensor_id;sensor_type;location;lat;lon;timestamp;P1;durP1;ratioP1;P2;durP2;ratioP2
33794;SDS011;51430;52.242;21.118;2023-06-22T00:00:34;32.00;;;29.20;;
33794;SDS011;51430;52.242;21.118;2023-06-22T00:03:23;31.60;;;28.90;;
33794;SDS011;51430;52.242;21.118;2023-06-22T00:05:52;30.70;;;28.20;;
33794;SDS011;51430;52.242;21.118;2023-06-22T00:08:20;30.90;;;28.60;;
33794;SDS011;51430;52.242;21.118;2023-06-22T00:10:48;31.60;;;29.20;;
33794;SDS011;51430;52.242;21.118;2023-06-22T00:13:20;32.90;;;30.20;;
33794;SDS011;51430;52.242;21.118;2023-06-22T00:15:48;31.60;;;29.10;;
33794;SDS011;51430;52.242;21.118;2023-06-22T00:18:16;33.60;;;30.80;;
33794;SDS011;51430;52.242;21.118;2023-06-22T00:20:44;33.60;;;30.90;;
33794;SDS011;51430;52.242;21.118;2023-06-22T00:23:13;36.10;;;33.20;;
33794;SDS011;51430;52.242;21.118;2023-06-22T00:25:44;35.40;;;32.60;;
33794;SDS011;51430;52.242;21.118;2023-06-22T00:28:12;37.70;;;34.70;;
33794;SDS011;51430;52.242;21.118;2023-06-22T00:30:40;35.30;;;32.60;;
33794;SDS011;51430;52.242;21.118;2023-06-22T00:33:08;33.80;;;31.30;;
33794;SDS011;51430;52.242;21.118;2023-06-22T00:35:36;32.30;;;29.80;;
33794;SDS011;51430;52.242;21.118;2023-06-22T00:38:07;33.60;;;30.80;;
33794;SDS011;51430;52.242;21.118;2023-06-22T00:40:37;35.90;;;33.00;;
33794;SDS011;51430;52.242;21.118;2023-06-22T00:43:05;35.90;;;33.20;;
33794;SDS011;51430;52.242;21.118;2023-06-22T00:45:33;35.80;;;33.00;;
33794;SDS011;51430;52.242;21.118;2023-06-22T00:48:01;36.00;;;33.10;;
33794;SDS011;51430;52.242;21.118;2023-06-22T00:50:31;35.40;;;32.50;;
33794;SDS011;51430;52.242;21.118;2023-06-22T00:53:07;33.70;;;31.10;;
33794;SDS011;51430;52.242;21.118;2023-06-22T00:55:46;35.90;;;33.10;;
33794;SDS011;51430;52.242;21.118;2023-06-22T00:58:15;35.70;;;32.80;;
33794;SDS011;51430;52.242;21.118;2023-06-22T01:00:43;34.40;;;31.70;;
33794;SDS011;51430;52.242;21.118;2023-06-22T01:03:11;34.20;;;31.60;;
33794;SDS011;51430;52.242;21.118;2023-06-22T01:05:39;35.00;;;32.20;;
33794;SDS011;51430;52.242;21.118;2023-06-22T01:18:55;34.20;;;31.60;;
33794;SDS011;51430;52.242;21.118;2023-06-22T01:21:24;33.70;;;30.90;;
33794;SDS011;51430;52.242;21.118;2023-06-22T01:29:10;34.40;;;31.60;;
33794;SDS011;51430;52.242;21.118;2023-06-22T01:31:41;35.00;;;32.20;;
33794;SDS011;51430;52.242;21.118;2023-06-22T01:34:14;34.50;;;31.70;;
33794;SDS011;51430;52.242;21.118;2023-06-22T01:36:46;34.80;;;32.00;;
33794;SDS011;51430;52.242;21.118;2023-06-22T01:39:14;36.10;;;33.20;;
33794;SDS011;51430;52.242;21.118;2023-06-22T01:41:43;35.00;;;32.30;;
33794;SDS011;51430;52.242;21.118;2023-06-22T01:44:12;35.30;;;32.60;;
33794;SDS011;51430;52.242;21.118;2023-06-22T01:46:39;36.80;;;34.00;;
33794;SDS011;51430;52.242;21.118;2023-06-22T01:49:08;35.80;;;32.90;;
33794;SDS011;51430;52.242;21.118;2023-06-22T01:51:36;35.80;;;33.00;;
33794;SDS011;51430;52.242;21.118;2023-06-22T01:54:05;33.80;;;31.30;;
33794;SDS011;51430;52.242;21.118;2023-06-22T01:56:34;33.70;;;31.30;;
33794;SDS011;51430;52.242;21.118;2023-06-22T01:59:10;35.10;;;32.30;;
33794;SDS011;51430;52.242;21.118;2023-06-22T02:01:44;35.00;;;32.10;;
33794;SDS011;51430;52.242;21.118;2023-06-22T02:04:44;35.20;;;32.40;;
33794;SDS011;51430;52.242;21.118;2023-06-22T02:07:17;34.60;;;31.70;;
33794;SDS011;51430;52.242;21.118;2023-06-22T02:09:48;34.60;;;31.90;;
33794;SDS011;51430;52.242;21.118;2023-06-22T02:12:21;34.80;;;32.00;;
33794;SDS011;51430;52.242;21.118;2023-06-22T02:14:51;35.50;;;32.70;;
33794;SDS011;51430;52.242;21.118;2023-06-22T02:17:21;35.80;;;33.00;;
33794;SDS011;51430;52.242;21.118;2023-06-22T02:19:49;35.60;;;32.90;;
33794;SDS011;51430;52.242;21.118;2023-06-22T02:22:17;37.20;;;34.30;;
33794;SDS011;51430;52.242;21.118;2023-06-22T02:24:45;36.40;;;33.60;;
33794;SDS011;51430;52.242;21.118;2023-06-22T02:27:13;34.90;;;32.20;;
33794;SDS011;51430;52.242;21.118;2023-06-22T02:29:41;34.90;;;32.10;;
33794;SDS011;51430;52.242;21.118;2023-06-22T02:32:09;34.80;;;32.10;;
33794;SDS011;51430;52.242;21.118;2023-06-22T02:34:37;36.90;;;34.00;;
33794;SDS011;51430;52.242;21.118;2023-06-22T02:37:05;38.20;;;35.00;;
33794;SDS011;51430;52.242;21.118;2023-06-22T02:39:33;40.10;;;36.80;;
33794;SDS011;51430;52.242;21.118;2023-06-22T02:42:01;42.60;;;39.10;;
33794;SDS011;51430;52.242;21.118;2023-06-22T02:44:29;43.20;;;39.80;;
33794;SDS011;51430;52.242;21.118;2023-06-22T02:46:57;41.60;;;38.20;;
33794;SDS011;51430;52.242;21.118;2023-06-22T02:49:25;42.60;;;39.20;;
33794;SDS011;51430;52.242;21.118;2023-06-22T02:51:53;44.80;;;41.10;;
33794;SDS011;51430;52.242;21.118;2023-06-22T02:54:22;45.00;;;41.40;;
33794;SDS011;51430;52.242;21.118;2023-06-22T02:56:50;45.90;;;42.20;;
33794;SDS011;51430;52.242;21.118;2023-06-22T02:59:18;44.10;;;40.40;;
33794;SDS011;51430;52.242;21.118;2023-06-22T03:01:51;46.90;;;43.10;;
33794;SDS011;51430;52.242;21.118;2023-06-22T03:04:19;47.80;;;43.90;;
33794;SDS011;51430;52.242;21.118;2023-06-22T03:06:47;44.80;;;41.10;;
33794;SDS011;51430;52.242;21.118;2023-06-22T03:09:21;45.50;;;41.90;;
33794;SDS011;51430;52.242;21.118;2023-06-22T03:11:49;46.90;;;42.80;;
33794;SDS011;51430;52.242;21.118;2023-06-22T03:14:17;45.40;;;41.60;;
33794;SDS011;51430;52.242;21.118;2023-06-22T03:16:45;46.30;;;42.50;;
33794;SDS011;51430;52.242;21.118;2023-06-22T03:19:13;46.40;;;42.60;;
33794;SDS011;51430;52.242;21.118;2023-06-22T03:21:41;46.60;;;42.90;;
33794;SDS011;51430;52.242;21.118;2023-06-22T03:27:49;43.90;;;39.90;;
33794;SDS011;51430;52.242;21.118;2023-06-22T03:30:16;47.40;;;43.50;;
33794;SDS011;51430;52.242;21.118;2023-06-22T03:32:42;47.90;;;44.10;;
33794;SDS011;51430;52.242;21.118;2023-06-22T03:35:09;49.40;;;45.30;;
33794;SDS011;51430;52.242;21.118;2023-06-22T03:37:38;48.20;;;44.30;;
33794;SDS011;51430;52.242;21.118;2023-06-22T03:40:06;45.50;;;41.80;;
33794;SDS011;51430;52.242;21.118;2023-06-22T03:42:33;47.70;;;43.80;;
33794;SDS011;51430;52.242;21.118;2023-06-22T03:45:06;46.00;;;42.30;;
33794;SDS011;51430;52.242;21.118;2023-06-22T03:47:33;46.50;;;42.60;;
33794;SDS011;51430;52.242;21.118;2023-06-22T03:50:00;44.90;;;41.20;;
33794;SDS011;51430;52.242;21.118;2023-06-22T03:52:34;45.40;;;41.80;;
33794;SDS011;51430;52.242;21.118;2023-06-22T03:55:00;44.60;;;40.80;;
33794;SDS011;51430;52.242;21.118;2023-06-22T03:57:39;42.70;;;39.30;;
33794;SDS011;51430;52.242;21.118;2023-06-22T04:00:06;44.90;;;41.10;;
33794;SDS011;51430;52.242;21.118;2023-06-22T04:02:34;43.80;;;40.00;;
33794;SDS011;51430;52.242;21.118;2023-06-22T04:05:00;43.60;;;40.00;;
33794;SDS011;51430;52.242;21.118;2023-06-22T04:07:36;43.70;;;40.00;;
33794;SDS011;51430;52.242;21.118;2023-06-22T04:10:06;43.10;;;39.50;;
33794;SDS011;51430;52.242;21.118;2023-06-22T04:12:33;41.80;;;38.40;;
33794;SDS011;51430;52.242;21.118;2023-06-22T04:14:59;41.80;;;38.40;;
33794;SDS011;51430;52.242;21.118;2023-06-22T04:17:26;41.60;;;38.30;;
33794;SDS011;51430;52.242;21.118;2023-06-22T04:19:53;41.70;;;38.30;;
33794;SDS011;51430;52.242;21.118;2023-06-22T04:22:19;40.50;;;37.20;;
33794;SDS011;51430;52.242;21.118;2023-06-22T04:24:46;40.80;;;37.40;;
33794;SDS011;51430;52.242;21.118;2023-06-22T04:27:12;41.20;;;37.70;;
33794;SDS011;51430;52.242;21.118;2023-06-22T04:29:38;40.80;;;37.50;;
33794;SDS011;51430;52.242;21.118;2023-06-22T04:32:15;40.80;;;37.40;;
33794;SDS011;51430;52.242;21.118;2023-06-22T04:34:42;40.60;;;37.30;;
33794;SDS011;51430;52.242;21.118;2023-06-22T04:37:09;39.70;;;36.40;;
33794;SDS011;51430;52.242;21.118;2023-06-22T04:39:35;39.00;;;35.60;;
33794;SDS011;51430;52.242;21.118;2023-06-22T04:42:02;39.00;;;35.80;;
33794;SDS011;51430;52.242;21.118;2023-06-22T04:44:29;39.90;;;36.20;;
33794;SDS011;51430;52.242;21.118;2023-06-22T04:46:57;38.80;;;35.40;;
33794;SDS011;51430;52.242;21.118;2023-06-22T04:49:30;37.70;;;34.50;;
33794;SDS011;51430;52.242;21.118;2023-06-22T04:52:01;37.80;;;34.70;;
33794;SDS011;51430;52.242;21.118;2023-06-22T04:54:29;38.30;;;34.90;;
33794;SDS011;51430;52.242;21.118;2023-06-22T04:57:07;38.50;;;35.20;;
33794;SDS011;51430;52.242;21.118;2023-06-22T04:59:37;36.70;;;33.70;;
33794;SDS011;51430;52.242;21.118;2023-06-22T05:02:05;36.70;;;33.60;;
33794;SDS011;51430;52.242;21.118;2023-06-22T05:04:32;37.10;;;33.90;;
33794;SDS011;51430;52.242;21.118;2023-06-22T05:07:02;38.10;;;34.90;;
33794;SDS011;51430;52.242;21.118;2023-06-22T05:09:29;37.70;;;34.70;;
33794;SDS011;51430;52.242;21.118;2023-06-22T05:11:55;36.90;;;33.50;;
33794;SDS011;51430;52.242;21.118;2023-06-22T05:14:25;37.10;;;33.70;;
33794;SDS011;51430;52.242;21.118;2023-06-22T05:16:52;37.80;;;34.60;;
33794;SDS011;51430;52.242;21.118;2023-06-22T05:19:18;37.00;;;33.80;;
33794;SDS011;51430;52.242;21.118;2023-06-22T05:21:45;36.10;;;33.20;;
33794;SDS011;51430;52.242;21.118;2023-06-22T05:24:12;35.90;;;32.90;;
33794;SDS011;51430;52.242;21.118;2023-06-22T05:26:38;36.00;;;32.90;;
33794;SDS011;51430;52.242;21.118;2023-06-22T05:29:05;36.10;;;33.10;;
33794;SDS011;51430;52.242;21.118;2023-06-22T05:31:32;34.40;;;31.40;;
33794;SDS011;51430;52.242;21.118;2023-06-22T05:33:59;35.70;;;32.50;;
33794;SDS011;51430;52.242;21.118;2023-06-22T05:36:26;35.20;;;32.10;;
33794;SDS011;51430;52.242;21.118;2023-06-22T05:38:52;33.70;;;30.80;;
33794;SDS011;51430;52.242;21.118;2023-06-22T05:41:19;33.90;;;31.10;;
33794;SDS011;51430;52.242;21.118;2023-06-22T05:43:45;33.50;;;30.80;;
33794;SDS011;51430;52.242;21.118;2023-06-22T05:46:12;33.00;;;30.30;;
33794;SDS011;51430;52.242;21.118;2023-06-22T05:48:39;32.90;;;29.90;;
33794;SDS011;51430;52.242;21.118;2023-06-22T05:55:33;30.30;;;27.70;;
33794;SDS011;51430;52.242;21.118;2023-06-22T05:58:02;32.30;;;29.40;;
33794;SDS011;51430;52.242;21.118;2023-06-22T06:00:34;31.40;;;28.80;;
33794;SDS011;51430;52.242;21.118;2023-06-22T06:03:02;31.40;;;28.60;;
33794;SDS011;51430;52.242;21.118;2023-06-22T06:05:34;31.70;;;28.80;;
33794;SDS011;51430;52.242;21.118;2023-06-22T06:08:02;30.70;;;28.00;;
33794;SDS011;51430;52.242;21.118;2023-06-22T06:10:35;31.60;;;28.80;;
33794;SDS011;51430;52.242;21.118;2023-06-22T06:13:03;30.40;;;27.80;;
33794;SDS011;51430;52.242;21.118;2023-06-22T06:15:34;29.80;;;27.30;;
33794;SDS011;51430;52.242;21.118;2023-06-22T06:18:02;29.60;;;26.90;;
33794;SDS011;51430;52.242;21.118;2023-06-22T06:20:32;29.80;;;27.20;;
33794;SDS011;51430;52.242;21.118;2023-06-22T06:23:01;28.70;;;26.10;;
33794;SDS011;51430;52.242;21.118;2023-06-22T06:25:30;31.20;;;28.40;;
33794;SDS011;51430;52.242;21.118;2023-06-22T06:27:58;34.60;;;31.60;;
33794;SDS011;51430;52.242;21.118;2023-06-22T06:30:26;32.60;;;30.00;;
33794;SDS011;51430;52.242;21.118;2023-06-22T06:32:55;34.80;;;31.80;;
33794;SDS011;51430;52.242;21.118;2023-06-22T06:35:23;34.60;;;31.40;;
33794;SDS011;51430;52.242;21.118;2023-06-22T06:37:51;32.70;;;30.00;;
33794;SDS011;51430;52.242;21.118;2023-06-22T06:40:20;32.90;;;30.00;;
33794;SDS011;51430;52.242;21.118;2023-06-22T06:42:50;32.70;;;29.60;;
33794;SDS011;51430;52.242;21.118;2023-06-22T06:45:19;31.40;;;28.60;;
33794;SDS011;51430;52.242;21.118;2023-06-22T06:47:52;30.70;;;28.00;;
33794;SDS011;51430;52.242;21.118;2023-06-22T06:50:20;32.10;;;29.50;;
33794;SDS011;51430;52.242;21.118;2023-06-22T06:52:49;29.90;;;27.10;;
33794;SDS011;51430;52.242;21.118;2023-06-22T06:55:21;28.60;;;26.10;;
33794;SDS011;51430;52.242;21.118;2023-06-22T06:57:51;27.50;;;24.90;;
33794;SDS011;51430;52.242;21.118;2023-06-22T07:00:20;29.50;;;25.10;;
33794;SDS011;51430;52.242;21.118;2023-06-22T07:02:48;29.60;;;26.50;;
33794;SDS011;51430;52.242;21.118;2023-06-22T07:05:16;27.30;;;24.80;;
33794;SDS011;51430;52.242;21.118;2023-06-22T07:07:44;26.20;;;23.60;;
33794;SDS011;51430;52.242;21.118;2023-06-22T07:10:12;24.40;;;22.10;;
33794;SDS011;51430;52.242;21.118;2023-06-22T07:12:40;23.10;;;21.00;;
33794;SDS011;51430;52.242;21.118;2023-06-22T07:15:08;24.20;;;22.20;;
33794;SDS011;51430;52.242;21.118;2023-06-22T07:17:38;23.40;;;21.40;;
33794;SDS011;51430;52.242;21.118;2023-06-22T07:20:09;24.20;;;22.20;;
33794;SDS011;51430;52.242;21.118;2023-06-22T07:22:39;21.60;;;19.90;;
33794;SDS011;51430;52.242;21.118;2023-06-22T07:25:10;20.50;;;18.70;;
33794;SDS011;51430;52.242;21.118;2023-06-22T07:27:44;19.50;;;17.70;;
33794;SDS011;51430;52.242;21.118;2023-06-22T07:30:33;18.10;;;16.50;;
33794;SDS011;51430;52.242;21.118;2023-06-22T07:33:02;18.30;;;16.50;;
33794;SDS011;51430;52.242;21.118;2023-06-22T07:35:31;16.80;;;15.40;;
33794;SDS011;51430;52.242;21.118;2023-06-22T07:37:59;15.50;;;14.00;;
33794;SDS011;51430;52.242;21.118;2023-06-22T07:40:32;15.80;;;14.30;;
33794;SDS011;51430;52.242;21.118;2023-06-22T07:43:02;15.00;;;13.60;;
33794;SDS011;51430;52.242;21.118;2023-06-22T07:45:31;15.10;;;13.60;;
33794;SDS011;51430;52.242;21.118;2023-06-22T07:48:01;15.20;;;13.60;;
33794;SDS011;51430;52.242;21.118;2023-06-22T07:52:57;12.90;;;11.60;;
33794;SDS011;51430;52.242;21.118;2023-06-22T07:55:25;13.20;;;11.40;;
33794;SDS011;51430;52.242;21.118;2023-06-22T07:57:53;12.50;;;11.10;;
33794;SDS011;51430;52.242;21.118;2023-06-22T08:00:21;13.60;;;9.70;;
33794;SDS011;51430;52.242;21.118;2023-06-22T08:02:50;9.60;;;8.60;;
33794;SDS011;51430;52.242;21.118;2023-06-22T08:05:20;9.20;;;8.00;;
33794;SDS011;51430;52.242;21.118;2023-06-22T08:08:02;9.00;;;7.10;;
33794;SDS011;51430;52.242;21.118;2023-06-22T08:10:30;10.80;;;6.10;;
33794;SDS011;51430;52.242;21.118;2023-06-22T08:13:02;6.40;;;5.80;;
33794;SDS011;51430;52.242;21.118;2023-06-22T08:15:30;7.30;;;5.80;;
33794;SDS011;51430;52.242;21.118;2023-06-22T08:17:59;6.80;;;5.90;;
33794;SDS011;51430;52.242;21.118;2023-06-22T08:20:28;7.40;;;5.50;;
33794;SDS011;51430;52.242;21.118;2023-06-22T08:22:56;9.10;;;5.90;;
33794;SDS011;51430;52.242;21.118;2023-06-22T08:25:25;8.80;;;6.20;;
33794;SDS011;51430;52.242;21.118;2023-06-22T08:27:54;7.80;;;5.70;;
33794;SDS011;51430;52.242;21.118;2023-06-22T08:30:21;6.30;;;5.30;;
33794;SDS011;51430;52.242;21.118;2023-06-22T08:32:49;9.40;;;5.60;;
33794;SDS011;51430;52.242;21.118;2023-06-22T08:35:17;8.00;;;6.00;;
33794;SDS011;51430;52.242;21.118;2023-06-22T08:37:45;6.50;;;5.90;;
33794;SDS011;51430;52.242;21.118;2023-06-22T08:40:20;7.20;;;5.70;;
33794;SDS011;51430;52.242;21.118;2023-06-22T08:42:49;8.40;;;5.70;;
33794;SDS011;51430;52.242;21.118;2023-06-22T08:45:17;7.50;;;5.40;;
33794;SDS011;51430;52.242;21.118;2023-06-22T08:47:45;6.30;;;5.30;;
33794;SDS011;51430;52.242;21.118;2023-06-22T08:50:13;6.60;;;4.80;;
33794;SDS011;51430;52.242;21.118;2023-06-22T08:52:41;7.30;;;4.60;;
33794;SDS011;51430;52.242;21.118;2023-06-22T08:55:12;6.10;;;4.80;;
33794;SDS011;51430;52.242;21.118;2023-06-22T08:57:40;5.70;;;4.80;;
33794;SDS011;51430;52.242;21.118;2023-06-22T09:00:15;5.70;;;4.10;;
33794;SDS011;51430;52.242;21.118;2023-06-22T09:02:53;5.90;;;4.30;;
33794;SDS011;51430;52.242;21.118;2023-06-22T09:05:34;9.60;;;4.20;;
33794;SDS011;51430;52.242;21.118;2023-06-22T09:08:02;8.30;;;4.30;;
33794;SDS011;51430;52.242;21.118;2023-06-22T09:10:33;5.00;;;4.50;;
33794;SDS011;51430;52.242;21.118;2023-06-22T09:13:01;7.10;;;4.40;;
33794;SDS011;51430;52.242;21.118;2023-06-22T09:15:29;13.30;;;4.20;;
33794;SDS011;51430;52.242;21.118;2023-06-22T09:17:58;6.40;;;4.10;;
33794;SDS011;51430;52.242;21.118;2023-06-22T09:20:26;5.20;;;4.10;;
33794;SDS011;51430;52.242;21.118;2023-06-22T09:22:55;5.50;;;4.40;;
33794;SDS011;51430;52.242;21.118;2023-06-22T09:25:23;5.50;;;3.70;;
33794;SDS011;51430;52.242;21.118;2023-06-22T09:27:51;4.60;;;3.80;;
33794;SDS011;51430;52.242;21.118;2023-06-22T09:30:19;5.20;;;3.60;;
33794;SDS011;51430;52.242;21.118;2023-06-22T09:32:49;5.20;;;3.30;;
33794;SDS011;51430;52.242;21.118;2023-06-22T09:35:17;5.50;;;3.00;;
33794;SDS011;51430;52.242;21.118;2023-06-22T09:37:45;3.80;;;3.00;;
33794;SDS011;51430;52.242;21.118;2023-06-22T09:40:14;5.70;;;3.20;;
33794;SDS011;51430;52.242;21.118;2023-06-22T09:42:44;3.80;;;3.10;;
33794;SDS011;51430;52.242;21.118;2023-06-22T09:45:12;4.30;;;3.10;;
33794;SDS011;51430;52.242;21.118;2023-06-22T09:47:40;5.00;;;3.40;;
33794;SDS011;51430;52.242;21.118;2023-06-22T09:50:09;3.50;;;3.00;;
33794;SDS011;51430;52.242;21.118;2023-06-22T09:52:37;10.00;;;3.10;;
33794;SDS011;51430;52.242;21.118;2023-06-22T09:55:07;7.20;;;3.50;;
33794;SDS011;51430;52.242;21.118;2023-06-22T09:57:36;6.30;;;3.20;;
33794;SDS011;51430;52.242;21.118;2023-06-22T10:00:05;6.00;;;2.80;;
33794;SDS011;51430;52.242;21.118;2023-06-22T10:02:41;5.30;;;2.90;;
33794;SDS011;51430;52.242;21.118;2023-06-22T10:05:09;4.50;;;2.90;;
33794;SDS011;51430;52.242;21.118;2023-06-22T10:07:38;8.00;;;3.30;;
33794;SDS011;51430;52.242;21.118;2023-06-22T10:10:10;7.60;;;3.40;;
33794;SDS011;51430;52.242;21.118;2023-06-22T10:12:41;5.00;;;3.20;;
33794;SDS011;51430;52.242;21.118;2023-06-22T10:15:11;3.90;;;3.00;;
33794;SDS011;51430;52.242;21.118;2023-06-22T10:17:39;5.10;;;3.00;;
33794;SDS011;51430;52.242;21.118;2023-06-22T10:20:08;8.90;;;3.60;;
33794;SDS011;51430;52.242;21.118;2023-06-22T10:22:41;4.10;;;3.10;;
33794;SDS011;51430;52.242;21.118;2023-06-22T10:25:11;4.50;;;3.40;;
33794;SDS011;51430;52.242;21.118;2023-06-22T10:27:40;4.30;;;3.10;;
33794;SDS011;51430;52.242;21.118;2023-06-22T10:30:09;5.70;;;2.90;;
33794;SDS011;51430;52.242;21.118;2023-06-22T10:32:41;3.60;;;3.10;;
33794;SDS011;51430;52.242;21.118;2023-06-22T10:35:11;4.50;;;3.00;;
33794;SDS011;51430;52.242;21.118;2023-06-22T10:37:43;4.20;;;3.10;;
33794;SDS011;51430;52.242;21.118;2023-06-22T10:40:13;4.70;;;3.40;;
33794;SDS011;51430;52.242;21.118;2023-06-22T10:42:43;4.70;;;3.20;;
33794;SDS011;51430;52.242;21.118;2023-06-22T10:45:11;3.40;;;3.10;;
33794;SDS011;51430;52.242;21.118;2023-06-22T10:47:39;5.00;;;3.30;;
33794;SDS011;51430;52.242;21.118;2023-06-22T10:50:10;7.20;;;3.70;;
33794;SDS011;51430;52.242;21.118;2023-06-22T10:52:39;4.50;;;3.60;;
33794;SDS011;51430;52.242;21.118;2023-06-22T10:55:09;7.20;;;3.70;;
33794;SDS011;51430;52.242;21.118;2023-06-22T10:57:38;3.80;;;3.50;;
33794;SDS011;51430;52.242;21.118;2023-06-22T11:00:09;7.30;;;3.50;;
33794;SDS011;51430;52.242;21.118;2023-06-22T11:02:39;5.40;;;3.60;;
33794;SDS011;51430;52.242;21.118;2023-06-22T11:12:48;3.50;;;3.10;;
33794;SDS011;51430;52.242;21.118;2023-06-22T11:15:15;4.10;;;3.40;;
33794;SDS011;51430;52.242;21.118;2023-06-22T11:17:46;4.10;;;3.40;;
33794;SDS011;51430;52.242;21.118;2023-06-22T11:20:13;7.00;;;3.70;;
33794;SDS011;51430;52.242;21.118;2023-06-22T11:22:40;5.70;;;4.00;;
33794;SDS011;51430;52.242;21.118;2023-06-22T11:25:08;4.40;;;3.40;;
33794;SDS011;51430;52.242;21.118;2023-06-22T11:27:35;5.60;;;3.90;;
33794;SDS011;51430;52.242;21.118;2023-06-22T11:30:02;4.50;;;3.70;;
33794;SDS011;51430;52.242;21.118;2023-06-22T11:32:32;5.00;;;3.40;;
33794;SDS011;51430;52.242;21.118;2023-06-22T11:34:59;5.00;;;3.70;;
33794;SDS011;51430;52.242;21.118;2023-06-22T11:37:25;5.90;;;3.70;;
33794;SDS011;51430;52.242;21.118;2023-06-22T11:39:52;5.60;;;3.80;;
33794;SDS011;51430;52.242;21.118;2023-06-22T11:42:25;4.90;;;3.70;;
33794;SDS011;51430;52.242;21.118;2023-06-22T11:44:51;5.00;;;3.90;;
33794;SDS011;51430;52.242;21.118;2023-06-22T11:47:19;4.20;;;3.80;;
33794;SDS011;51430;52.242;21.118;2023-06-22T11:49:46;5.20;;;3.70;;
33794;SDS011;51430;52.242;21.118;2023-06-22T11:52:12;4.40;;;3.60;;
33794;SDS011;51430;52.242;21.118;2023-06-22T11:54:39;5.60;;;3.60;;
33794;SDS011;51430;52.242;21.118;2023-06-22T11:57:05;7.30;;;4.00;;
33794;SDS011;51430;52.242;21.118;2023-06-22T11:59:32;6.30;;;3.50;;
33794;SDS011;51430;52.242;21.118;2023-06-22T12:01:59;6.10;;;3.60;;
33794;SDS011;51430;52.242;21.118;2023-06-22T12:04:25;4.70;;;3.60;;
33794;SDS011;51430;52.242;21.118;2023-06-22T12:06:52;6.40;;;3.80;;
33794;SDS011;51430;52.242;21.118;2023-06-22T12:09:19;5.10;;;3.70;;
33794;SDS011;51430;52.242;21.118;2023-06-22T12:11:48;4.00;;;3.40;;
33794;SDS011;51430;52.242;21.118;2023-06-22T12:14:14;3.80;;;3.40;;
33794;SDS011;51430;52.242;21.118;2023-06-22T12:16:40;4.70;;;3.60;;
33794;SDS011;51430;52.242;21.118;2023-06-22T12:19:07;4.10;;;3.60;;
33794;SDS011;51430;52.242;21.118;2023-06-22T12:21:33;7.00;;;3.80;;
33794;SDS011;51430;52.242;21.118;2023-06-22T12:27:24;8.20;;;4.00;;
33794;SDS011;51430;52.242;21.118;2023-06-22T12:29:56;5.40;;;3.50;;
33794;SDS011;51430;52.242;21.118;2023-06-22T12:32:24;4.80;;;3.60;;
33794;SDS011;51430;52.242;21.118;2023-06-22T12:34:53;4.40;;;3.60;;
33794;SDS011;51430;52.242;21.118;2023-06-22T12:37:21;6.60;;;3.70;;
33794;SDS011;51430;52.242;21.118;2023-06-22T12:39:50;4.10;;;3.70;;
33794;SDS011;51430;52.242;21.118;2023-06-22T12:42:18;6.70;;;3.60;;
33794;SDS011;51430;52.242;21.118;2023-06-22T12:44:46;4.60;;;3.60;;
33794;SDS011;51430;52.242;21.118;2023-06-22T12:47:14;4.20;;;3.50;;
33794;SDS011;51430;52.242;21.118;2023-06-22T12:49:42;5.60;;;3.60;;
33794;SDS011;51430;52.242;21.118;2023-06-22T12:52:09;6.50;;;3.80;;
33794;SDS011;51430;52.242;21.118;2023-06-22T12:54:38;5.30;;;3.90;;
33794;SDS011;51430;52.242;21.118;2023-06-22T12:57:22;5.40;;;3.70;;
33794;SDS011;51430;52.242;21.118;2023-06-22T12:59:50;4.90;;;4.00;;
33794;SDS011;51430;52.242;21.118;2023-06-22T13:02:18;4.20;;;3.60;;
33794;SDS011;51430;52.242;21.118;2023-06-22T13:04:46;4.80;;;3.40;;
33794;SDS011;51430;52.242;21.118;2023-06-22T13:07:14;3.80;;;3.30;;
33794;SDS011;51430;52.242;21.118;2023-06-22T13:09:53;4.10;;;3.80;;
33794;SDS011;51430;52.242;21.118;2023-06-22T13:12:21;4.30;;;3.60;;
33794;SDS011;51430;52.242;21.118;2023-06-22T13:14:50;5.00;;;3.70;;
33794;SDS011;51430;52.242;21.118;2023-06-22T13:17:20;4.00;;;3.60;;
33794;SDS011;51430;52.242;21.118;2023-06-22T13:19:48;4.00;;;3.50;;
33794;SDS011;51430;52.242;21.118;2023-06-22T13:22:29;5.20;;;3.50;;
33794;SDS011;51430;52.242;21.118;2023-06-22T13:24:59;3.90;;;3.40;;
33794;SDS011;51430;52.242;21.118;2023-06-22T13:27:28;4.80;;;3.60;;
33794;SDS011;51430;52.242;21.118;2023-06-22T13:29:55;4.30;;;3.70;;
33794;SDS011;51430;52.242;21.118;2023-06-22T13:32:23;6.00;;;3.80;;
33794;SDS011;51430;52.242;21.118;2023-06-22T13:34:52;5.60;;;3.90;;
33794;SDS011;51430;52.242;21.118;2023-06-22T13:37:20;6.00;;;3.60;;
33794;SDS011;51430;52.242;21.118;2023-06-22T13:39:48;4.80;;;3.70;;
33794;SDS011;51430;52.242;21.118;2023-06-22T13:42:15;5.10;;;3.90;;
33794;SDS011;51430;52.242;21.118;2023-06-22T13:44:43;4.50;;;4.10;;
33794;SDS011;51430;52.242;21.118;2023-06-22T13:47:11;5.30;;;4.00;;
33794;SDS011;51430;52.242;21.118;2023-06-22T13:49:39;4.60;;;4.10;;
33794;SDS011;51430;52.242;21.118;2023-06-22T13:52:07;4.60;;;4.10;;
33794;SDS011;51430;52.242;21.118;2023-06-22T13:54:37;4.40;;;4.00;;
33794;SDS011;51430;52.242;21.118;2023-06-22T13:57:05;4.60;;;4.00;;
33794;SDS011;51430;52.242;21.118;2023-06-22T13:59:34;8.40;;;4.00;;
33794;SDS011;51430;52.242;21.118;2023-06-22T14:02:02;4.70;;;4.30;;
33794;SDS011;51430;52.242;21.118;2023-06-22T14:04:30;4.80;;;3.90;;
33794;SDS011;51430;52.242;21.118;2023-06-22T14:06:58;4.70;;;3.90;;
33794;SDS011;51430;52.242;21.118;2023-06-22T14:09:27;5.70;;;4.00;;
33794;SDS011;51430;52.242;21.118;2023-06-22T14:11:57;7.80;;;4.30;;
33794;SDS011;51430;52.242;21.118;2023-06-22T14:14:25;6.60;;;4.20;;
33794;SDS011;51430;52.242;21.118;2023-06-22T14:16:54;9.00;;;4.20;;
33794;SDS011;51430;52.242;21.118;2023-06-22T14:19:22;6.90;;;4.10;;
33794;SDS011;51430;52.242;21.118;2023-06-22T14:21:49;5.10;;;4.00;;
33794;SDS011;51430;52.242;21.118;2023-06-22T14:24:17;8.30;;;4.00;;
33794;SDS011;51430;52.242;21.118;2023-06-22T14:26:47;6.40;;;3.90;;
33794;SDS011;51430;52.242;21.118;2023-06-22T14:29:15;5.10;;;4.20;;
33794;SDS011;51430;52.242;21.118;2023-06-22T14:31:46;5.10;;;4.20;;
33794;SDS011;51430;52.242;21.118;2023-06-22T14:34:15;6.80;;;4.10;;
33794;SDS011;51430;52.242;21.118;2023-06-22T14:36:43;4.80;;;4.10;;
33794;SDS011;51430;52.242;21.118;2023-06-22T14:39:11;4.30;;;4.00;;
33794;SDS011;51430;52.242;21.118;2023-06-22T14:41:39;5.50;;;4.10;;
33794;SDS011;51430;52.242;21.118;2023-06-22T14:45:07;4.60;;;4.20;;
33794;SDS011;51430;52.242;21.118;2023-06-22T14:48:29;5.90;;;4.20;;
33794;SDS011;51430;52.242;21.118;2023-06-22T14:52:22;4.00;;;3.70;;
33794;SDS011;51430;52.242;21.118;2023-06-22T14:54:49;4.30;;;3.80;;
33794;SDS011;51430;52.242;21.118;2023-06-22T14:57:18;4.90;;;3.90;;
33794;SDS011;51430;52.242;21.118;2023-06-22T14:59:47;5.10;;;4.10;;
33794;SDS011;51430;52.242;21.118;2023-06-22T15:02:14;7.00;;;4.30;;
33794;SDS011;51430;52.242;21.118;2023-06-22T15:07:09;5.30;;;4.10;;
33794;SDS011;51430;52.242;21.118;2023-06-22T15:10:49;5.90;;;4.10;;
33794;SDS011;51430;52.242;21.118;2023-06-22T15:14:26;6.90;;;4.20;;
33794;SDS011;51430;52.242;21.118;2023-06-22T15:18:06;4.40;;;4.00;;